sensor_id;sensor_type;location;lat;lon;timestamp;P1;durP1;ratioP1;P2;durP2;ratioP2
33150;SDS011;19508;42.578;23.416;2024-01-06T00:02:05;24.52;;;10.43;;
33150;SDS011;19508;42.578;23.416;2024-01-06T00:04:31;21.85;;;8.32;;
33150;SDS011;19508;42.578;23.416;2024-01-06T00:06:57;14.15;;;6.30;;
33150;SDS011;19508;42.578;23.416;2024-01-06T00:09:22;14.05;;;6.28;;
33150;SDS011;19508;42.578;23.416;2024-01-06T00:11:48;19.15;;;7.57;;
33150;SDS011;19508;42.578;23.416;2024-01-06T00:14:13;23.92;;;8.38;;
33150;SDS011;19508;42.578;23.416;2024-01-06T00:16:39;22.25;;;7.70;;
33150;SDS011;19508;42.578;23.416;2024-01-06T00:19:05;34.28;;;15.55;;
33150;SDS011;19508;42.578;23.416;2024-01-06T00:21:30;26.40;;;10.98;;
33150;SDS011;19508;42.578;23.416;2024-01-06T00:23:55;23.67;;;9.90;;
33150;SDS011;19508;42.578;23.416;2024-01-06T00:26:21;26.38;;;11.07;;
33150;SDS011;19508;42.578;23.416;2024-01-06T00:28:47;24.15;;;9.75;;
33150;SDS011;19508;42.578;23.416;2024-01-06T00:31:14;24.35;;;9.90;;
33150;SDS011;19508;42.578;23.416;2024-01-06T00:33:43;21.77;;;9.27;;
33150;SDS011;19508;42.578;23.416;2024-01-06T00:36:09;56.40;;;20.95;;
33150;SDS011;19508;42.578;23.416;2024-01-06T00:38:34;33.38;;;13.00;;
33150;SDS011;19508;42.578;23.416;2024-01-06T00:41:01;49.83;;;17.60;;
33150;SDS011;19508;42.578;23.416;2024-01-06T00:43:26;58.58;;;18.17;;
33150;SDS011;19508;42.578;23.416;2024-01-06T00:45:52;46.20;;;17.13;;
33150;SDS011;19508;42.578;23.416;2024-01-06T00:48:17;61.55;;;20.30;;
33150;SDS011;19508;42.578;23.416;2024-01-06T00:50:43;78.03;;;22.85;;
33150;SDS011;19508;42.578;23.416;2024-01-06T00:53:08;60.28;;;19.35;;
33150;SDS011;19508;42.578;23.416;2024-01-06T00:55:33;52.03;;;18.42;;
33150;SDS011;19508;42.578;23.416;2024-01-06T00:57:59;43.92;;;15.68;;
33150;SDS011;19508;42.578;23.416;2024-01-06T01:00:24;72.15;;;22.83;;
33150;SDS011;19508;42.578;23.416;2024-01-06T01:02:52;56.67;;;19.80;;
33150;SDS011;19508;42.578;23.416;2024-01-06T01:05:17;57.00;;;17.40;;
33150;SDS011;19508;42.578;23.416;2024-01-06T01:07:43;54.88;;;19.02;;
33150;SDS011;19508;42.578;23.416;2024-01-06T01:10:08;58.20;;;18.88;;
33150;SDS011;19508;42.578;23.416;2024-01-06T01:12:34;50.33;;;17.17;;
33150;SDS011;19508;42.578;23.416;2024-01-06T01:15:00;27.70;;;10.50;;
33150;SDS011;19508;42.578;23.416;2024-01-06T01:17:26;34.15;;;12.48;;
33150;SDS011;19508;42.578;23.416;2024-01-06T01:19:51;33.15;;;12.32;;
33150;SDS011;19508;42.578;23.416;2024-01-06T01:22:17;36.22;;;12.30;;
33150;SDS011;19508;42.578;23.416;2024-01-06T01:24:42;31.48;;;10.05;;
33150;SDS011;19508;42.578;23.416;2024-01-06T01:27:08;17.13;;;7.32;;
33150;SDS011;19508;42.578;23.416;2024-01-06T01:29:33;17.08;;;6.78;;
33150;SDS011;19508;42.578;23.416;2024-01-06T01:31:59;19.00;;;6.90;;
33150;SDS011;19508;42.578;23.416;2024-01-06T01:34:25;22.50;;;7.85;;
33150;SDS011;19508;42.578;23.416;2024-01-06T01:36:50;33.63;;;11.88;;
33150;SDS011;19508;42.578;23.416;2024-01-06T01:39:15;25.38;;;8.95;;
33150;SDS011;19508;42.578;23.416;2024-01-06T01:41:41;21.00;;;8.85;;
33150;SDS011;19508;42.578;23.416;2024-01-06T01:44:06;24.70;;;8.30;;
33150;SDS011;19508;42.578;23.416;2024-01-06T01:46:32;17.60;;;6.93;;
33150;SDS011;19508;42.578;23.416;2024-01-06T01:48:58;9.05;;;4.68;;
33150;SDS011;19508;42.578;23.416;2024-01-06T01:51:32;11.23;;;4.72;;
33150;SDS011;19508;42.578;23.416;2024-01-06T01:54:03;13.00;;;6.03;;
33150;SDS011;19508;42.578;23.416;2024-01-06T01:56:31;11.45;;;5.47;;
33150;SDS011;19508;42.578;23.416;2024-01-06T01:58:59;14.73;;;5.68;;
33150;SDS011;19508;42.578;23.416;2024-01-06T02:01:28;11.88;;;5.45;;
33150;SDS011;19508;42.578;23.416;2024-01-06T02:03:54;15.52;;;5.07;;
33150;SDS011;19508;42.578;23.416;2024-01-06T02:06:20;14.43;;;6.18;;
33150;SDS011;19508;42.578;23.416;2024-01-06T02:08:45;14.07;;;5.88;;
33150;SDS011;19508;42.578;23.416;2024-01-06T02:11:10;16.40;;;6.50;;
33150;SDS011;19508;42.578;23.416;2024-01-06T02:13:36;16.90;;;6.93;;
33150;SDS011;19508;42.578;23.416;2024-01-06T02:16:03;14.18;;;5.75;;
33150;SDS011;19508;42.578;23.416;2024-01-06T02:18:32;15.45;;;4.97;;
33150;SDS011;19508;42.578;23.416;2024-01-06T02:20:59;23.00;;;6.45;;
33150;SDS011;19508;42.578;23.416;2024-01-06T02:23:25;14.48;;;6.15;;
33150;SDS011;19508;42.578;23.416;2024-01-06T02:25:51;19.25;;;7.38;;
33150;SDS011;19508;42.578;23.416;2024-01-06T02:28:17;15.05;;;6.93;;
33150;SDS011;19508;42.578;23.416;2024-01-06T02:30:43;15.32;;;6.32;;
33150;SDS011;19508;42.578;23.416;2024-01-06T02:33:08;20.48;;;7.88;;
33150;SDS011;19508;42.578;23.416;2024-01-06T02:35:34;18.98;;;7.80;;
33150;SDS011;19508;42.578;23.416;2024-01-06T02:38:00;17.27;;;7.07;;
33150;SDS011;19508;42.578;23.416;2024-01-06T02:40:25;22.77;;;8.02;;
33150;SDS011;19508;42.578;23.416;2024-01-06T02:42:51;16.88;;;6.88;;
33150;SDS011;19508;42.578;23.416;2024-01-06T02:45:16;11.32;;;6.63;;
33150;SDS011;19508;42.578;23.416;2024-01-06T02:47:42;13.32;;;6.10;;
33150;SDS011;19508;42.578;23.416;2024-01-06T02:50:07;14.23;;;5.88;;
33150;SDS011;19508;42.578;23.416;2024-01-06T02:52:33;18.17;;;7.18;;
33150;SDS011;19508;42.578;23.416;2024-01-06T02:54:58;16.15;;;6.65;;
33150;SDS011;19508;42.578;23.416;2024-01-06T02:57:24;23.45;;;7.25;;
33150;SDS011;19508;42.578;23.416;2024-01-06T02:59:49;19.02;;;7.72;;
33150;SDS011;19508;42.578;23.416;2024-01-06T03:02:15;13.80;;;7.05;;
33150;SDS011;19508;42.578;23.416;2024-01-06T03:04:41;14.50;;;6.70;;
33150;SDS011;19508;42.578;23.416;2024-01-06T03:07:07;20.27;;;7.53;;
33150;SDS011;19508;42.578;23.416;2024-01-06T03:09:32;16.88;;;6.22;;
33150;SDS011;19508;42.578;23.416;2024-01-06T03:11:57;16.15;;;7.47;;
33150;SDS011;19508;42.578;23.416;2024-01-06T03:14:23;16.83;;;6.75;;
33150;SDS011;19508;42.578;23.416;2024-01-06T03:16:48;18.63;;;7.03;;
33150;SDS011;19508;42.578;23.416;2024-01-06T03:19:14;25.13;;;8.57;;
33150;SDS011;19508;42.578;23.416;2024-01-06T03:21:39;27.08;;;9.85;;
33150;SDS011;19508;42.578;23.416;2024-01-06T03:24:04;22.98;;;8.80;;
33150;SDS011;19508;42.578;23.416;2024-01-06T03:26:31;19.42;;;8.05;;
33150;SDS011;19508;42.578;23.416;2024-01-06T03:28:57;25.80;;;8.48;;
33150;SDS011;19508;42.578;23.416;2024-01-06T03:31:23;32.90;;;10.57;;
33150;SDS011;19508;42.578;23.416;2024-01-06T03:33:49;19.55;;;7.85;;
33150;SDS011;19508;42.578;23.416;2024-01-06T03:36:14;14.85;;;5.80;;
33150;SDS011;19508;42.578;23.416;2024-01-06T03:38:41;15.35;;;5.18;;
33150;SDS011;19508;42.578;23.416;2024-01-06T03:41:07;9.75;;;5.22;;
33150;SDS011;19508;42.578;23.416;2024-01-06T03:43:33;20.10;;;9.10;;
33150;SDS011;19508;42.578;23.416;2024-01-06T03:45:58;21.80;;;6.65;;
33150;SDS011;19508;42.578;23.416;2024-01-06T03:48:25;20.35;;;7.93;;
33150;SDS011;19508;42.578;23.416;2024-01-06T03:50:51;20.02;;;7.53;;
33150;SDS011;19508;42.578;23.416;2024-01-06T03:53:16;19.17;;;6.90;;
33150;SDS011;19508;42.578;23.416;2024-01-06T03:55:42;22.38;;;7.50;;
33150;SDS011;19508;42.578;23.416;2024-01-06T03:58:07;32.63;;;8.20;;
33150;SDS011;19508;42.578;23.416;2024-01-06T04:00:33;14.90;;;5.80;;
33150;SDS011;19508;42.578;23.416;2024-01-06T04:02:58;13.48;;;4.80;;
33150;SDS011;19508;42.578;23.416;2024-01-06T04:05:23;15.07;;;5.47;;
33150;SDS011;19508;42.578;23.416;2024-01-06T04:07:49;17.50;;;7.03;;
33150;SDS011;19508;42.578;23.416;2024-01-06T04:10:14;21.70;;;7.65;;
33150;SDS011;19508;42.578;23.416;2024-01-06T04:12:40;20.25;;;7.63;;
33150;SDS011;19508;42.578;23.416;2024-01-06T04:15:05;22.55;;;8.90;;
33150;SDS011;19508;42.578;23.416;2024-01-06T04:17:31;17.38;;;6.75;;
33150;SDS011;19508;42.578;23.416;2024-01-06T04:19:56;13.95;;;5.97;;
33150;SDS011;19508;42.578;23.416;2024-01-06T04:22:22;19.30;;;6.43;;
33150;SDS011;19508;42.578;23.416;2024-01-06T04:24:47;11.07;;;5.00;;
33150;SDS011;19508;42.578;23.416;2024-01-06T04:27:12;13.43;;;5.20;;
33150;SDS011;19508;42.578;23.416;2024-01-06T04:29:38;17.15;;;5.75;;
33150;SDS011;19508;42.578;23.416;2024-01-06T04:32:04;14.90;;;6.25;;
33150;SDS011;19508;42.578;23.416;2024-01-06T04:34:30;12.23;;;5.93;;
33150;SDS011;19508;42.578;23.416;2024-01-06T04:36:55;16.13;;;5.60;;
33150;SDS011;19508;42.578;23.416;2024-01-06T04:39:20;12.40;;;5.70;;
33150;SDS011;19508;42.578;23.416;2024-01-06T04:41:46;18.02;;;6.70;;
33150;SDS011;19508;42.578;23.416;2024-01-06T04:44:11;12.52;;;6.50;;
33150;SDS011;19508;42.578;23.416;2024-01-06T04:46:37;17.55;;;6.55;;
33150;SDS011;19508;42.578;23.416;2024-01-06T04:49:02;14.20;;;6.55;;
33150;SDS011;19508;42.578;23.416;2024-01-06T04:51:27;30.80;;;11.27;;
33150;SDS011;19508;42.578;23.416;2024-01-06T04:53:53;59.55;;;22.98;;
33150;SDS011;19508;42.578;23.416;2024-01-06T04:56:18;55.90;;;22.25;;
33150;SDS011;19508;42.578;23.416;2024-01-06T04:58:44;52.42;;;20.48;;
33150;SDS011;19508;42.578;23.416;2024-01-06T05:01:09;43.67;;;16.88;;
33150;SDS011;19508;42.578;23.416;2024-01-06T05:03:35;22.13;;;9.88;;
33150;SDS011;19508;42.578;23.416;2024-01-06T05:06:00;29.50;;;9.65;;
33150;SDS011;19508;42.578;23.416;2024-01-06T05:08:25;31.33;;;11.30;;
33150;SDS011;19508;42.578;23.416;2024-01-06T05:10:52;38.63;;;13.43;;
33150;SDS011;19508;42.578;23.416;2024-01-06T05:13:18;17.70;;;7.10;;
33150;SDS011;19508;42.578;23.416;2024-01-06T05:15:44;15.25;;;7.03;;
33150;SDS011;19508;42.578;23.416;2024-01-06T05:18:09;13.68;;;6.30;;
33150;SDS011;19508;42.578;23.416;2024-01-06T05:20:34;11.60;;;4.85;;
33150;SDS011;19508;42.578;23.416;2024-01-06T05:23:00;11.52;;;4.82;;
33150;SDS011;19508;42.578;23.416;2024-01-06T05:25:25;13.27;;;5.43;;
33150;SDS011;19508;42.578;23.416;2024-01-06T05:27:51;10.45;;;5.07;;
33150;SDS011;19508;42.578;23.416;2024-01-06T05:30:16;12.20;;;5.40;;
33150;SDS011;19508;42.578;23.416;2024-01-06T05:32:43;10.93;;;5.55;;
33150;SDS011;19508;42.578;23.416;2024-01-06T05:35:08;8.55;;;5.03;;
33150;SDS011;19508;42.578;23.416;2024-01-06T05:37:34;11.93;;;5.18;;
33150;SDS011;19508;42.578;23.416;2024-01-06T05:39:59;10.32;;;4.15;;
33150;SDS011;19508;42.578;23.416;2024-01-06T05:42:27;13.30;;;5.03;;
33150;SDS011;19508;42.578;23.416;2024-01-06T05:44:53;8.15;;;4.63;;
33150;SDS011;19508;42.578;23.416;2024-01-06T05:47:19;12.88;;;4.15;;
33150;SDS011;19508;42.578;23.416;2024-01-06T05:49:45;11.35;;;4.10;;
33150;SDS011;19508;42.578;23.416;2024-01-06T05:52:10;9.25;;;4.43;;
33150;SDS011;19508;42.578;23.416;2024-01-06T05:54:35;9.35;;;4.28;;
33150;SDS011;19508;42.578;23.416;2024-01-06T05:57:01;9.13;;;4.43;;
33150;SDS011;19508;42.578;23.416;2024-01-06T05:59:27;16.45;;;4.15;;
33150;SDS011;19508;42.578;23.416;2024-01-06T06:01:52;11.27;;;3.92;;
33150;SDS011;19508;42.578;23.416;2024-01-06T06:04:18;7.78;;;3.72;;
33150;SDS011;19508;42.578;23.416;2024-01-06T06:06:44;10.23;;;3.67;;
33150;SDS011;19508;42.578;23.416;2024-01-06T06:09:09;7.28;;;3.17;;
33150;SDS011;19508;42.578;23.416;2024-01-06T06:11:35;9.45;;;4.10;;
33150;SDS011;19508;42.578;23.416;2024-01-06T06:14:01;7.07;;;4.22;;
33150;SDS011;19508;42.578;23.416;2024-01-06T06:16:28;22.60;;;9.00;;
33150;SDS011;19508;42.578;23.416;2024-01-06T06:18:53;10.27;;;4.57;;
33150;SDS011;19508;42.578;23.416;2024-01-06T06:21:20;12.18;;;4.97;;
33150;SDS011;19508;42.578;23.416;2024-01-06T06:23:45;8.98;;;4.80;;
33150;SDS011;19508;42.578;23.416;2024-01-06T06:26:10;13.85;;;3.83;;
33150;SDS011;19508;42.578;23.416;2024-01-06T06:28:37;13.32;;;4.93;;
33150;SDS011;19508;42.578;23.416;2024-01-06T06:31:02;14.02;;;4.40;;
33150;SDS011;19508;42.578;23.416;2024-01-06T06:33:28;10.27;;;4.13;;
33150;SDS011;19508;42.578;23.416;2024-01-06T06:35:54;9.13;;;4.32;;
33150;SDS011;19508;42.578;23.416;2024-01-06T06:38:19;10.30;;;3.47;;
33150;SDS011;19508;42.578;23.416;2024-01-06T06:40:46;8.93;;;4.53;;
33150;SDS011;19508;42.578;23.416;2024-01-06T06:43:12;8.05;;;3.35;;
33150;SDS011;19508;42.578;23.416;2024-01-06T06:45:38;7.65;;;3.92;;
33150;SDS011;19508;42.578;23.416;2024-01-06T06:48:04;9.10;;;4.38;;
33150;SDS011;19508;42.578;23.416;2024-01-06T06:50:30;7.60;;;3.83;;
33150;SDS011;19508;42.578;23.416;2024-01-06T06:52:55;8.85;;;4.10;;
33150;SDS011;19508;42.578;23.416;2024-01-06T06:55:21;15.13;;;5.88;;
33150;SDS011;19508;42.578;23.416;2024-01-06T06:57:49;10.07;;;4.43;;
33150;SDS011;19508;42.578;23.416;2024-01-06T07:00:14;9.63;;;4.00;;
33150;SDS011;19508;42.578;23.416;2024-01-06T07:02:41;9.75;;;4.35;;
33150;SDS011;19508;42.578;23.416;2024-01-06T07:05:06;11.38;;;3.78;;
33150;SDS011;19508;42.578;23.416;2024-01-06T07:07:35;11.02;;;4.55;;
33150;SDS011;19508;42.578;23.416;2024-01-06T07:10:01;10.93;;;4.15;;
33150;SDS011;19508;42.578;23.416;2024-01-06T07:12:28;11.63;;;4.47;;
33150;SDS011;19508;42.578;23.416;2024-01-06T07:14:53;7.80;;;3.60;;
33150;SDS011;19508;42.578;23.416;2024-01-06T07:17:19;9.05;;;3.58;;
33150;SDS011;19508;42.578;23.416;2024-01-06T07:19:44;8.35;;;3.55;;
33150;SDS011;19508;42.578;23.416;2024-01-06T07:22:10;5.72;;;3.15;;
33150;SDS011;19508;42.578;23.416;2024-01-06T07:24:36;6.85;;;3.55;;
33150;SDS011;19508;42.578;23.416;2024-01-06T07:27:02;10.65;;;4.30;;
33150;SDS011;19508;42.578;23.416;2024-01-06T07:29:28;8.48;;;3.70;;
33150;SDS011;19508;42.578;23.416;2024-01-06T07:31:54;5.43;;;2.95;;
33150;SDS011;19508;42.578;23.416;2024-01-06T07:34:19;9.23;;;3.38;;
33150;SDS011;19508;42.578;23.416;2024-01-06T07:36:45;6.25;;;3.03;;
33150;SDS011;19508;42.578;23.416;2024-01-06T07:39:10;15.07;;;3.20;;
33150;SDS011;19508;42.578;23.416;2024-01-06T07:41:35;9.95;;;3.83;;
33150;SDS011;19508;42.578;23.416;2024-01-06T07:44:01;12.15;;;3.75;;
33150;SDS011;19508;42.578;23.416;2024-01-06T07:46:28;32.53;;;6.20;;
33150;SDS011;19508;42.578;23.416;2024-01-06T07:48:54;9.57;;;3.85;;
33150;SDS011;19508;42.578;23.416;2024-01-06T07:51:22;10.73;;;3.63;;
33150;SDS011;19508;42.578;23.416;2024-01-06T07:53:48;21.90;;;5.47;;
33150;SDS011;19508;42.578;23.416;2024-01-06T07:56:13;15.90;;;7.25;;
33150;SDS011;19508;42.578;23.416;2024-01-06T07:58:39;16.77;;;6.18;;
33150;SDS011;19508;42.578;23.416;2024-01-06T08:01:04;15.20;;;5.88;;
33150;SDS011;19508;42.578;23.416;2024-01-06T08:03:29;28.88;;;10.93;;
33150;SDS011;19508;42.578;23.416;2024-01-06T08:05:55;16.13;;;8.43;;
33150;SDS011;19508;42.578;23.416;2024-01-06T08:08:21;11.70;;;4.90;;
33150;SDS011;19508;42.578;23.416;2024-01-06T08:10:47;14.07;;;6.15;;
33150;SDS011;19508;42.578;23.416;2024-01-06T08:13:12;12.75;;;4.82;;
33150;SDS011;19508;42.578;23.416;2024-01-06T08:15:38;14.40;;;6.03;;
33150;SDS011;19508;42.578;23.416;2024-01-06T08:18:03;13.95;;;6.85;;
33150;SDS011;19508;42.578;23.416;2024-01-06T08:20:31;9.35;;;4.45;;
33150;SDS011;19508;42.578;23.416;2024-01-06T08:22:56;14.02;;;3.38;;
33150;SDS011;19508;42.578;23.416;2024-01-06T08:25:22;12.98;;;4.00;;
33150;SDS011;19508;42.578;23.416;2024-01-06T08:27:47;7.75;;;3.80;;
33150;SDS011;19508;42.578;23.416;2024-01-06T08:30:13;5.30;;;3.00;;
33150;SDS011;19508;42.578;23.416;2024-01-06T08:32:38;11.95;;;3.97;;
33150;SDS011;19508;42.578;23.416;2024-01-06T08:35:04;13.82;;;6.50;;
33150;SDS011;19508;42.578;23.416;2024-01-06T08:37:30;12.77;;;6.00;;
33150;SDS011;19508;42.578;23.416;2024-01-06T08:39:55;10.35;;;5.05;;
33150;SDS011;19508;42.578;23.416;2024-01-06T08:42:21;16.60;;;5.55;;
33150;SDS011;19508;42.578;23.416;2024-01-06T08:44:47;7.97;;;4.28;;
33150;SDS011;19508;42.578;23.416;2024-01-06T08:47:12;9.52;;;4.68;;
33150;SDS011;19508;42.578;23.416;2024-01-06T08:49:38;14.25;;;5.63;;
33150;SDS011;19508;42.578;23.416;2024-01-06T08:52:03;12.88;;;5.00;;
33150;SDS011;19508;42.578;23.416;2024-01-06T08:54:30;15.02;;;5.82;;
33150;SDS011;19508;42.578;23.416;2024-01-06T08:56:56;12.38;;;5.07;;
33150;SDS011;19508;42.578;23.416;2024-01-06T08:59:22;13.80;;;6.75;;
33150;SDS011;19508;42.578;23.416;2024-01-06T09:01:47;6.82;;;3.92;;
33150;SDS011;19508;42.578;23.416;2024-01-06T09:04:12;11.60;;;3.35;;
33150;SDS011;19508;42.578;23.416;2024-01-06T09:06:38;12.43;;;4.00;;
33150;SDS011;19508;42.578;23.416;2024-01-06T09:09:03;6.78;;;3.35;;
33150;SDS011;19508;42.578;23.416;2024-01-06T09:11:30;9.30;;;3.55;;
33150;SDS011;19508;42.578;23.416;2024-01-06T09:13:55;11.95;;;3.42;;
33150;SDS011;19508;42.578;23.416;2024-01-06T09:16:21;6.43;;;2.92;;
33150;SDS011;19508;42.578;23.416;2024-01-06T09:18:46;11.85;;;4.95;;
33150;SDS011;19508;42.578;23.416;2024-01-06T09:21:12;13.15;;;5.43;;
33150;SDS011;19508;42.578;23.416;2024-01-06T09:23:37;7.90;;;3.75;;
33150;SDS011;19508;42.578;23.416;2024-01-06T09:26:03;5.47;;;2.85;;
33150;SDS011;19508;42.578;23.416;2024-01-06T09:28:28;5.25;;;2.85;;
33150;SDS011;19508;42.578;23.416;2024-01-06T09:30:53;14.32;;;5.70;;
33150;SDS011;19508;42.578;23.416;2024-01-06T09:33:21;9.35;;;3.63;;
33150;SDS011;19508;42.578;23.416;2024-01-06T09:35:47;6.95;;;3.40;;
33150;SDS011;19508;42.578;23.416;2024-01-06T09:38:12;8.80;;;3.38;;
33150;SDS011;19508;42.578;23.416;2024-01-06T09:40:41;6.53;;;3.60;;
33150;SDS011;19508;42.578;23.416;2024-01-06T09:43:08;6.82;;;3.33;;
33150;SDS011;19508;42.578;23.416;2024-01-06T09:45:35;7.72;;;3.30;;
33150;SDS011;19508;42.578;23.416;2024-01-06T09:48:02;11.10;;;4.90;;
33150;SDS011;19508;42.578;23.416;2024-01-06T09:50:36;11.52;;;3.45;;
33150;SDS011;19508;42.578;23.416;2024-01-06T09:53:02;14.60;;;6.00;;
33150;SDS011;19508;42.578;23.416;2024-01-06T09:55:30;8.27;;;4.03;;
33150;SDS011;19508;42.578;23.416;2024-01-06T09:57:56;29.65;;;12.25;;
33150;SDS011;19508;42.578;23.416;2024-01-06T10:00:22;20.45;;;9.10;;
33150;SDS011;19508;42.578;23.416;2024-01-06T10:02:47;16.73;;;7.60;;
33150;SDS011;19508;42.578;23.416;2024-01-06T10:05:16;17.55;;;7.38;;
33150;SDS011;19508;42.578;23.416;2024-01-06T10:07:43;11.88;;;5.50;;
33150;SDS011;19508;42.578;23.416;2024-01-06T10:10:09;12.13;;;4.80;;
33150;SDS011;19508;42.578;23.416;2024-01-06T10:12:38;14.40;;;4.10;;
33150;SDS011;19508;42.578;23.416;2024-01-06T10:15:07;7.68;;;3.60;;
33150;SDS011;19508;42.578;23.416;2024-01-06T10:17:37;10.48;;;4.50;;
33150;SDS011;19508;42.578;23.416;2024-01-06T10:20:10;8.93;;;4.05;;
33150;SDS011;19508;42.578;23.416;2024-01-06T10:22:37;10.35;;;3.97;;
33150;SDS011;19508;42.578;23.416;2024-01-06T10:25:05;7.55;;;3.97;;
33150;SDS011;19508;42.578;23.416;2024-01-06T10:27:38;9.00;;;4.63;;
33150;SDS011;19508;42.578;23.416;2024-01-06T10:30:05;24.25;;;4.93;;
33150;SDS011;19508;42.578;23.416;2024-01-06T10:32:31;12.60;;;3.92;;
33150;SDS011;19508;42.578;23.416;2024-01-06T10:34:57;8.27;;;3.78;;
33150;SDS011;19508;42.578;23.416;2024-01-06T10:37:23;9.82;;;4.18;;
33150;SDS011;19508;42.578;23.416;2024-01-06T10:40:04;10.95;;;3.95;;
33150;SDS011;19508;42.578;23.416;2024-01-06T10:42:31;16.38;;;3.92;;
33150;SDS011;19508;42.578;23.416;2024-01-06T10:44:57;7.10;;;3.60;;
33150;SDS011;19508;42.578;23.416;2024-01-06T10:47:24;11.35;;;4.10;;
33150;SDS011;19508;42.578;23.416;2024-01-06T10:49:51;16.73;;;6.68;;
33150;SDS011;19508;42.578;23.416;2024-01-06T10:52:19;18.92;;;7.40;;
33150;SDS011;19508;42.578;23.416;2024-01-06T10:54:46;21.00;;;8.48;;
33150;SDS011;19508;42.578;23.416;2024-01-06T10:57:15;26.30;;;12.05;;
33150;SDS011;19508;42.578;23.416;2024-01-06T10:59:43;32.50;;;14.50;;
33150;SDS011;19508;42.578;23.416;2024-01-06T11:02:13;39.67;;;18.50;;
33150;SDS011;19508;42.578;23.416;2024-01-06T11:04:42;30.42;;;14.00;;
33150;SDS011;19508;42.578;23.416;2024-01-06T11:07:09;32.30;;;13.45;;
33150;SDS011;19508;42.578;23.416;2024-01-06T11:09:34;26.52;;;12.07;;
33150;SDS011;19508;42.578;23.416;2024-01-06T11:12:04;27.80;;;13.70;;
33150;SDS011;19508;42.578;23.416;2024-01-06T11:14:36;56.83;;;21.42;;
33150;SDS011;19508;42.578;23.416;2024-01-06T11:17:02;45.50;;;15.10;;
33150;SDS011;19508;42.578;23.416;2024-01-06T11:24:48;36.28;;;14.95;;
33150;SDS011;19508;42.578;23.416;2024-01-06T11:27:18;38.63;;;14.63;;
33150;SDS011;19508;42.578;23.416;2024-01-06T11:29:56;32.80;;;15.65;;
33150;SDS011;19508;42.578;23.416;2024-01-06T11:32:29;28.73;;;14.32;;
33150;SDS011;19508;42.578;23.416;2024-01-06T11:37:55;10.15;;;4.78;;
33150;SDS011;19508;42.578;23.416;2024-01-06T11:45:33;8.50;;;2.80;;
33150;SDS011;19508;42.578;23.416;2024-01-06T11:48:03;24.70;;;9.07;;
33150;SDS011;19508;42.578;23.416;2024-01-06T11:50:32;17.02;;;8.85;;
33150;SDS011;19508;42.578;23.416;2024-01-06T11:53:01;24.60;;;7.78;;
33150;SDS011;19508;42.578;23.416;2024-01-06T11:55:27;18.42;;;6.78;;
33150;SDS011;19508;42.578;23.416;2024-01-06T11:57:54;15.35;;;6.07;;
33150;SDS011;19508;42.578;23.416;2024-01-06T12:00:21;15.88;;;5.35;;
33150;SDS011;19508;42.578;23.416;2024-01-06T12:02:46;18.10;;;6.53;;
33150;SDS011;19508;42.578;23.416;2024-01-06T12:05:13;22.60;;;6.43;;
33150;SDS011;19508;42.578;23.416;2024-01-06T12:07:42;16.20;;;6.95;;
33150;SDS011;19508;42.578;23.416;2024-01-06T12:10:09;23.30;;;10.35;;
33150;SDS011;19508;42.578;23.416;2024-01-06T12:12:35;24.45;;;10.52;;
33150;SDS011;19508;42.578;23.416;2024-01-06T12:15:00;19.15;;;8.95;;
33150;SDS011;19508;42.578;23.416;2024-01-06T12:17:29;24.27;;;9.35;;
33150;SDS011;19508;42.578;23.416;2024-01-06T12:19:56;22.95;;;8.02;;
33150;SDS011;19508;42.578;23.416;2024-01-06T12:22:21;19.60;;;6.70;;
33150;SDS011;19508;42.578;23.416;2024-01-06T12:24:50;10.00;;;4.25;;
33150;SDS011;19508;42.578;23.416;2024-01-06T12:27:16;15.32;;;5.28;;
33150;SDS011;19508;42.578;23.416;2024-01-06T12:29:43;20.10;;;6.28;;
33150;SDS011;19508;42.578;23.416;2024-01-06T12:32:09;11.63;;;4.88;;
33150;SDS011;19508;42.578;23.416;2024-01-06T12:34:36;16.15;;;5.53;;
33150;SDS011;19508;42.578;23.416;2024-01-06T12:37:02;17.23;;;5.65;;
33150;SDS011;19508;42.578;23.416;2024-01-06T12:39:28;16.08;;;5.28;;
33150;SDS011;19508;42.578;23.416;2024-01-06T12:41:54;14.68;;;5.57;;
33150;SDS011;19508;42.578;23.416;2024-01-06T12:44:20;26.08;;;11.80;;
33150;SDS011;19508;42.578;23.416;2024-01-06T12:46:46;22.05;;;11.63;;
33150;SDS011;19508;42.578;23.416;2024-01-06T12:49:12;12.38;;;5.63;;
33150;SDS011;19508;42.578;23.416;2024-01-06T12:51:38;11.60;;;4.38;;
33150;SDS011;19508;42.578;23.416;2024-01-06T12:54:03;23.50;;;8.40;;
33150;SDS011;19508;42.578;23.416;2024-01-06T12:56:29;38.88;;;11.82;;
33150;SDS011;19508;42.578;23.416;2024-01-06T12:58:54;24.98;;;9.50;;
33150;SDS011;19508;42.578;23.416;2024-01-06T13:01:20;23.27;;;8.93;;
33150;SDS011;19508;42.578;23.416;2024-01-06T13:03:46;31.23;;;10.13;;
33150;SDS011;19508;42.578;23.416;2024-01-06T13:06:12;17.63;;;7.70;;
33150;SDS011;19508;42.578;23.416;2024-01-06T13:08:38;19.67;;;7.07;;
33150;SDS011;19508;42.578;23.416;2024-01-06T13:11:04;14.10;;;4.88;;
33150;SDS011;19508;42.578;23.416;2024-01-06T13:13:29;24.70;;;9.32;;
33150;SDS011;19508;42.578;23.416;2024-01-06T13:15:56;21.65;;;9.65;;
33150;SDS011;19508;42.578;23.416;2024-01-06T13:18:22;14.88;;;5.88;;
33150;SDS011;19508;42.578;23.416;2024-01-06T13:20:47;9.23;;;4.10;;
33150;SDS011;19508;42.578;23.416;2024-01-06T13:23:13;20.95;;;8.10;;
33150;SDS011;19508;42.578;23.416;2024-01-06T13:25:38;27.75;;;10.63;;
33150;SDS011;19508;42.578;23.416;2024-01-06T13:28:05;29.25;;;10.32;;
33150;SDS011;19508;42.578;23.416;2024-01-06T13:30:31;24.00;;;11.52;;
33150;SDS011;19508;42.578;23.416;2024-01-06T13:32:57;26.00;;;10.00;;
33150;SDS011;19508;42.578;23.416;2024-01-06T13:35:23;40.58;;;13.25;;
33150;SDS011;19508;42.578;23.416;2024-01-06T13:37:54;14.65;;;6.78;;
33150;SDS011;19508;42.578;23.416;2024-01-06T13:40:22;17.67;;;6.90;;
33150;SDS011;19508;42.578;23.416;2024-01-06T13:42:49;6.45;;;3.08;;
33150;SDS011;19508;42.578;23.416;2024-01-06T13:45:16;16.80;;;4.93;;
33150;SDS011;19508;42.578;23.416;2024-01-06T13:47:42;10.35;;;4.97;;
33150;SDS011;19508;42.578;23.416;2024-01-06T13:50:09;24.90;;;8.75;;
33150;SDS011;19508;42.578;23.416;2024-01-06T13:52:37;17.90;;;6.68;;
33150;SDS011;19508;42.578;23.416;2024-01-06T13:55:02;18.20;;;5.95;;
33150;SDS011;19508;42.578;23.416;2024-01-06T13:57:28;39.22;;;12.43;;
33150;SDS011;19508;42.578;23.416;2024-01-06T13:59:53;31.42;;;12.50;;
33150;SDS011;19508;42.578;23.416;2024-01-06T14:02:19;29.60;;;11.07;;
33150;SDS011;19508;42.578;23.416;2024-01-06T14:04:44;24.08;;;9.43;;
33150;SDS011;19508;42.578;23.416;2024-01-06T14:07:10;22.70;;;7.80;;
33150;SDS011;19508;42.578;23.416;2024-01-06T14:09:35;20.45;;;7.70;;
33150;SDS011;19508;42.578;23.416;2024-01-06T14:12:01;19.67;;;8.25;;
33150;SDS011;19508;42.578;23.416;2024-01-06T14:14:27;12.45;;;4.03;;
33150;SDS011;19508;42.578;23.416;2024-01-06T14:16:52;10.45;;;4.00;;
33150;SDS011;19508;42.578;23.416;2024-01-06T14:19:18;9.23;;;3.25;;
33150;SDS011;19508;42.578;23.416;2024-01-06T14:21:43;7.43;;;3.67;;
33150;SDS011;19508;42.578;23.416;2024-01-06T14:24:09;15.02;;;4.65;;
33150;SDS011;19508;42.578;23.416;2024-01-06T14:26:34;12.18;;;4.80;;
33150;SDS011;19508;42.578;23.416;2024-01-06T14:29:00;12.07;;;3.63;;